KSHN/SHN METAR and TAF weather

Enter ICAO airport designator
Station Type Date Time Source
KSHN METAR 2019/08/25 06:53 UTC NOAA

KSHN 250653Z AUTO 25006KT 10SM FEW042 FEW049 15/13 A3002 RMK AO2 SLP163 T01500128


Station Type Date Time Source
KSHN Decoded METAR 2019/08/25 06:53 UTC NOAA

Station name not available
Aug 25, 2019 - 02:53 AM EDT / 2019.08.25 0653 UTC
Wind: from the WSW (250 degrees) at 7 MPH (6 KT):0
Visibility: 10 mile(s):0
Sky conditions: mostly clear
Temperature: 59.0 F (15.0 C)
Dew Point: 55.0 F (12.8 C)
Relative Humidity: 86%
Pressure (altimeter): 30.02 in. Hg (1016 hPa)
ob: KSHN 250653Z AUTO 25006KT 10SM FEW042 FEW049 15/13 A3002 RMK AO2 SLP163 T01500128
cycle: 7

Station Type Date Time Source
KSHN TAF UTC NOAA

Error!

Example: see airport list